Accueil
METAR-TAF:

METAR-TAF

Aéroports :

Aérodrome de Logrogne

Logroño, Espagne

latitude: 42-27N, longitude: 002-20W, altitude: 353 m

Observation

Le bulletin a été fait il y a 38 minutes, à 17:30 UTC
Vent 8 kt de ouest
Température 6°C
Humidité 75%
Pression 1018 hPa
Visibilité 10 km ou plus
Quelques nuages à une hauteur de 3100 ft

METAR: LELO 011730Z 26008KT 9999 FEW031 06/02 Q1018

Heure: 19:08 (18:08 UTC)

Prévision

Le bulletin a été fait il y a 4 heures et 8 minutes, à 14:00 UTC
Prévision valable du 01 à 15 UTC au 02 à 15 UTC
Vent 10 kt de ouest
Visibilité 10 km ou plus
Quelques nuages à une hauteur de 3000 ft
Probabilité 30% :
Temporairement
du 02 à 03 UTC au 02 à 09 UTC
Visibilité: 3000 m
brume
Evoluant progressivement
du 02 à 11 UTC au 02 à 13 UTC
Vent 5 kt de est

TAF: LELO 011400Z 0115/0215 27010KT 9999 FEW030 TX11/0115Z TNM02/0206Z PROB30 TEMPO 0203/0209 3000 BR NSC BECMG 0211/0213 10005KT

Observations et prévisions météorologiques de plus de 4000 aéroports (messages METAR et TAF).

Les stations disponibles sont représentées par des disques jaunes et rouges sur la carte.

Passer la souris dessus pour voir le nom de la station.

Cliquer dessus pour voir les observations et prévisions météorologiques.

Pour changer de carte: cliquez sur les boutons verts avec une croix noire pour zoomer, sur le bouton vert avec un tiret pour effectuer un zoom arrière, ou sur les flèches vertes pour les cartes adjacentes.


METAR-TAF: